Time;durP1;ratioP1;P1;durP2;ratioP2;P2;SDS_P1;SDS_P2;PMS_P1;PMS_P2;Temp;Humidity;BMP_temperature;BMP_pressure;BME280_temperature;BME280_humidity;BME280_pressure;Samples;Min_cycle;Max_cycle;Signal;HPM_P1;HPM_P2
2022/12/15 00:40:06;;;;;;;37.72;33.67;;;2.10;54.40;;;;;;20703;6738;308133;-78
2022/12/15 00:42:42;;;;;;;37.00;33.10;;;2.50;53.90;;;;;;20663;6738;276500;-78
2022/12/15 00:45:18;;;;;;;37.20;32.73;;;2.90;52.50;;;;;;20560;6741;308291;-78
2022/12/15 00:47:54;;;;;;;29.73;24.70;;;2.90;52.60;;;;;;20961;6725;116909;-78
2022/12/15 01:22:41;;;;;;;34.83;31.20;;;2.80;52.30;;;;;;20691;6737;276774;-78
2022/12/15 01:25:17;;;;;;;27.57;23.03;;;3.00;51.60;;;;;;20788;6737;117969;-77
2022/12/15 01:27:52;;;;;;;26.77;22.10;;;2.80;51.60;;;;;;20919;6737;118672;-77
2022/12/15 01:30:28;;;;;;;32.65;29.23;;;2.50;52.30;;;;;;20700;6722;335485;-81
2022/12/15 01:33:04;;;;;;;29.60;23.40;;;2.50;52.60;;;;;;20848;6755;117123;-77
2022/12/15 01:35:40;;;;;;;33.53;29.93;;;2.50;53.40;;;;;;20591;6726;278794;-77
2022/12/15 01:38:16;;;;;;;32.80;29.30;;;2.50;53.40;;;;;;20742;6726;305798;-77
2022/12/15 01:40:51;;;;;;;32.97;29.40;;;2.80;52.50;;;;;;20723;6726;275727;-78
2022/12/15 01:43:28;;;;;;;33.97;30.27;;;3.10;51.60;;;;;;20701;6740;289928;-77
2022/12/15 01:46:06;;;;;;;26.93;22.90;;;3.10;51.60;;;;;;20773;6781;117695;-79
2022/12/15 01:48:45;;;;;;;26.17;20.83;;;2.90;51.60;;;;;;20923;6725;127122;-77
2022/12/15 01:51:34;;;;;;;31.20;27.83;;;2.50;52.10;;;;;;20761;6711;277137;-81
2022/12/15 01:54:16;;;;;;;29.00;23.33;;;2.50;52.40;;;;;;20851;6740;117480;-80
2022/12/15 01:56:51;;;;;;;26.37;20.83;;;2.40;52.30;;;;;;20892;6740;120383;-81
2022/12/15 01:59:29;;;;;;;33.13;28.77;;;2.20;53.20;;;;;;20698;6740;278678;-79
2022/12/15 02:02:05;;;;;;;27.73;22.60;;;2.20;53.20;;;;;;20909;6740;120168;-78
2022/12/15 02:04:40;;;;;;;26.20;20.83;;;2.20;53.10;;;;;;20904;6711;129610;-80
2022/12/15 02:07:17;;;;;;;25.93;21.20;;;2.00;53.40;;;;;;20981;6711;117174;-80
2022/12/15 02:09:53;;;;;;;32.08;28.60;;;1.80;53.60;;;;;;20619;6811;306563;-78
2022/12/15 02:12:51;;;;;;;29.43;23.67;;;2.00;54.20;;;;;;20931;6726;117465;-79
2022/12/15 02:15:43;;;;;;;26.97;21.43;;;2.00;53.90;;;;;;20727;6746;117649;-77
2022/12/15 02:18:19;;;;;;;26.03;20.60;;;1.80;53.90;;;;;;20926;6734;117650;-77
2022/12/15 02:21:01;;;;;;;32.23;28.67;;;1.60;54.20;;;;;;20569;6773;336135;-79
2022/12/15 02:23:58;;;;;;;27.90;22.87;;;1.80;54.30;;;;;;20844;6758;117150;-79
2022/12/15 02:27:13;;;;;;;29.10;22.77;;;1.80;54.00;;;;;;20910;6742;117751;-78
2022/12/15 02:30:15;;;;;;;35.35;31.52;;;1.70;54.90;;;;;;20666;6751;337651;-80
2022/12/15 02:32:54;;;;;;;32.77;25.03;;;1.90;54.20;;;;;;20415;6835;120712;-81
2022/12/15 02:35:46;;;;;;;37.23;32.20;;;1.80;54.40;;;;;;20521;6764;279819;-78
2022/12/15 02:38:35;;;;;;;33.73;24.63;;;2.00;54.00;;;;;;20871;6749;117053;-79
2022/12/15 02:41:27;;;;;;;31.63;24.00;;;2.00;53.70;;;;;;20930;6736;117281;-82
2022/12/15 02:44:10;;;;;;;37.78;33.10;;;1.70;54.00;;;;;;20684;6736;304235;-78
2022/12/15 02:47:12;;;;;;;32.17;24.83;;;1.90;54.20;;;;;;20955;6721;122116;-80
2022/12/15 02:50:08;;;;;;;39.35;33.83;;;1.90;54.00;;;;;;20701;6736;307705;-80
2022/12/15 02:52:53;;;;;;;31.77;24.80;;;2.10;54.10;;;;;;20946;6734;118178;-79
2022/12/15 02:55:29;;;;;;;27.47;22.50;;;2.00;53.70;;;;;;20708;6773;117633;-81
2022/12/15 02:58:05;;;;;;;29.27;22.67;;;1.60;54.50;;;;;;20929;6742;116902;-79
2022/12/15 03:00:44;;;;;;;27.73;21.80;;;1.60;54.50;;;;;;20801;6738;118691;-79
2022/12/15 03:03:19;;;;;;;35.23;31.03;;;1.50;54.80;;;;;;20706;6738;277695;-79
2022/12/15 03:05:56;;;;;;;32.57;26.43;;;1.70;55.10;;;;;;20791;6738;118578;-78
2022/12/15 03:08:32;;;;;;;39.03;33.77;;;1.90;54.60;;;;;;20750;6720;334046;-78
2022/12/15 03:11:08;;;;;;;29.80;24.10;;;1.90;54.50;;;;;;20978;6720;117231;-79
2022/12/15 03:13:44;;;;;;;33.42;29.80;;;1.90;54.10;;;;;;20708;6738;335749;-78
2022/12/15 03:16:20;;;;;;;31.77;28.57;;;2.40;53.40;;;;;;20808;6721;276619;-79
2022/12/15 03:19:01;;;;;;;32.47;29.08;;;2.40;53.40;;;;;;20717;6737;306083;-78
2022/12/15 03:21:31;;;;;;;32.13;28.77;;;2.60;52.70;;;;;;20784;6726;305727;-82
2022/12/15 03:24:07;;;;;;;33.00;29.53;;;2.80;52.10;;;;;;20749;6726;338752;-78
2022/12/15 03:26:42;;;;;;;33.30;29.70;;;2.90;51.60;;;;;;20748;6729;305510;-80
2022/12/15 03:29:18;;;;;;;33.30;29.90;;;3.00;51.40;;;;;;20744;6737;276523;-81
2022/12/15 03:31:53;;;;;;;32.80;29.30;;;3.10;51.20;;;;;;20684;6752;306226;-80
2022/12/15 03:34:29;;;;;;;29.00;22.03;;;3.10;51.00;;;;;;20833;6752;120284;-78
2022/12/15 03:37:12;;;;;;;28.37;22.00;;;2.80;51.10;;;;;;20872;6748;118019;-80
2022/12/15 03:39:42;;;;;;;34.17;30.45;;;2.40;51.80;;;;;;20679;6753;306613;-81
2022/12/15 03:42:47;;;;;;;29.70;24.20;;;2.30;52.40;;;;;;20955;6726;116939;-78
2022/12/15 03:44:53;;;;;;;32.77;29.27;;;2.20;52.40;;;;;;20599;6776;405686;-79
2022/12/15 03:47:29;;;;;;;35.13;31.27;;;2.50;51.90;;;;;;20760;6720;305805;-80
2022/12/15 03:50:05;;;;;;;34.03;30.03;;;2.50;52.30;;;;;;20743;6720;310382;-79
2022/12/15 03:52:41;;;;;;;29.73;25.03;;;2.70;51.90;;;;;;20951;6769;118745;-80
2022/12/15 03:55:17;;;;;;;35.15;30.75;;;2.50;51.80;;;;;;20553;6723;339185;-79
2022/12/15 03:57:52;;;;;;;36.00;31.53;;;2.40;52.00;;;;;;20636;6809;323921;-76
2022/12/15 04:00:29;;;;;;;31.07;24.27;;;2.60;51.60;;;;;;20902;6733;117510;-79
2022/12/15 04:03:04;;;;;;;28.17;21.90;;;2.50;51.60;;;;;;20915;6733;117828;-78
2022/12/15 04:05:40;;;;;;;29.40;21.80;;;2.10;52.10;;;;;;20734;6755;118144;-78
2022/12/15 04:08:15;;;;;;;33.17;29.57;;;1.80;52.70;;;;;;20794;6710;276148;-81
2022/12/15 04:10:51;;;;;;;28.73;23.20;;;1.90;53.10;;;;;;20892;6739;120052;-77
2022/12/15 04:13:27;;;;;;;28.27;21.17;;;1.90;52.90;;;;;;20961;6726;120112;-77
2022/12/15 04:16:03;;;;;;;28.53;21.53;;;1.50;53.50;;;;;;20728;6796;118456;-76
2022/12/15 04:18:39;;;;;;;32.00;22.77;;;1.40;53.80;;;;;;20876;6740;121157;-79
2022/12/15 04:21:18;;;;;;;27.33;21.10;;;1.30;53.70;;;;;;20811;6770;117201;-76
2022/12/15 05:34:12;;;;;;;28.63;22.53;;;2.20;53.40;;;;;;20885;6729;116905;-79
2022/12/15 05:36:47;;;;;;;36.10;31.58;;;2.10;53.30;;;;;;20612;6765;336793;-79
2022/12/15 05:39:23;;;;;;;31.07;24.77;;;2.10;53.60;;;;;;20829;6764;117912;-75
2022/12/15 05:41:58;;;;;;;30.43;22.17;;;2.10;53.50;;;;;;20774;6776;118049;-77
2022/12/15 05:44:34;;;;;;;37.90;31.03;;;1.90;53.70;;;;;;20541;6750;290601;-77
2022/12/15 05:47:10;;;;;;;33.87;24.80;;;1.90;53.90;;;;;;20930;6733;120143;-76
2022/12/15 05:49:45;;;;;;;30.33;22.80;;;1.90;53.70;;;;;;20892;6747;117690;-79
2022/12/15 05:52:21;;;;;;;35.87;29.90;;;1.70;53.90;;;;;;20649;6754;277757;-78
2022/12/15 05:54:57;;;;;;;37.80;32.90;;;1.80;54.20;;;;;;20554;6756;280074;-79
2022/12/15 05:57:33;;;;;;;37.87;32.90;;;2.10;53.40;;;;;;20694;6742;308551;-80
2022/12/15 06:00:09;;;;;;;42.60;34.38;;;2.40;52.80;;;;;;20607;6762;304995;-78
2022/12/15 06:02:45;;;;;;;36.70;26.83;;;2.60;52.60;;;;;;20721;6787;117436;-76
2022/12/15 06:05:20;;;;;;;33.37;23.27;;;2.40;52.40;;;;;;20684;6779;119055;-80
2022/12/15 06:07:57;;;;;;;38.60;32.43;;;2.10;53.30;;;;;;20697;6734;306354;-78
2022/12/15 06:10:32;;;;;;;38.90;32.50;;;2.10;53.30;;;;;;20719;6732;307343;-75
2022/12/15 06:13:08;;;;;;;32.47;24.87;;;2.30;52.60;;;;;;20850;6745;117541;-78
2022/12/15 06:15:44;;;;;;;39.63;32.13;;;2.20;52.70;;;;;;20559;6759;278642;-77
2022/12/15 06:18:20;;;;;;;36.25;31.90;;;2.20;53.30;;;;;;20790;6708;336743;-77
2022/12/15 06:20:59;;;;;;;43.10;36.30;;;2.60;52.10;;;;;;20770;6708;334822;-76
2022/12/15 06:23:35;;;;;;;35.13;26.13;;;2.60;52.10;;;;;;20962;6723;117561;-78
2022/12/15 06:26:11;;;;;;;33.73;24.27;;;2.00;52.40;;;;;;20981;6715;117198;-78
2022/12/15 06:28:47;;;;;;;32.90;24.37;;;2.00;52.40;;;;;;20954;6723;121651;-78
2022/12/15 06:31:24;;;;;;;38.77;32.17;;;1.70;53.00;;;;;;20764;6722;275936;-80
2022/12/15 06:34:00;;;;;;;39.77;33.77;;;2.10;53.00;;;;;;20714;6723;310308;-78
2022/12/15 06:36:36;;;;;;;35.57;26.37;;;2.00;52.60;;;;;;20928;6733;119593;-79
2022/12/15 06:39:13;;;;;;;40.55;33.63;;;2.00;52.60;;;;;;20691;6746;337472;-76
2022/12/15 06:41:48;;;;;;;41.90;33.70;;;2.00;52.90;;;;;;20659;6748;309938;-78
2022/12/15 06:44:24;;;;;;;40.90;34.00;;;2.20;52.60;;;;;;20662;6736;280652;-76
2022/12/15 06:47:00;;;;;;;34.43;26.30;;;2.30;52.40;;;;;;20836;6758;119986;-76
2022/12/15 06:49:37;;;;;;;40.53;33.13;;;2.20;52.60;;;;;;20621;6746;335542;-78
2022/12/15 06:52:14;;;;;;;32.50;25.20;;;2.20;52.60;;;;;;20896;6749;117653;-77
2022/12/15 06:54:50;;;;;;;39.05;32.50;;;2.00;53.40;;;;;;20598;6750;309274;-79
2022/12/15 06:57:25;;;;;;;40.90;34.57;;;2.00;52.80;;;;;;20755;6738;309002;-82
2022/12/15 07:00:01;;;;;;;37.43;26.33;;;2.30;52.60;;;;;;20798;6766;117238;-80
2022/12/15 07:02:38;;;;;;;40.97;33.73;;;2.10;52.30;;;;;;20614;6760;277888;-80
2022/12/15 07:05:12;;;;;;;48.40;37.97;;;2.10;52.60;;;;;;20514;6768;310962;-79
2022/12/15 07:07:49;;;;;;;38.83;29.03;;;2.10;52.30;;;;;;20761;6778;118657;-76
2022/12/15 07:10:24;;;;;;;37.17;26.30;;;2.10;52.30;;;;;;20890;6748;117140;-77
2022/12/15 07:13:01;;;;;;;50.83;36.03;;;1.80;53.40;;;;;;20717;6727;305451;-76
2022/12/15 07:15:37;;;;;;;53.47;38.70;;;1.80;53.40;;;;;;20578;6721;308572;-77
2022/12/15 07:18:12;;;;;;;39.77;27.20;;;2.10;53.20;;;;;;20999;6719;122191;-79
2022/12/15 07:20:51;;;;;;;44.93;35.77;;;2.00;52.90;;;;;;20770;6719;309707;-75
2022/12/15 07:23:25;;;;;;;37.43;27.53;;;2.10;53.20;;;;;;21002;6719;116921;-76
2022/12/15 07:26:00;;;;;;;41.85;34.85;;;2.00;53.10;;;;;;20554;6792;308120;-77
2022/12/15 07:28:36;;;;;;;41.75;34.63;;;2.00;53.30;;;;;;20770;6713;277914;-78
2022/12/15 07:31:12;;;;;;;41.85;34.33;;;2.30;53.00;;;;;;20742;6721;338582;-75
2022/12/15 07:33:48;;;;;;;34.83;26.27;;;2.50;53.10;;;;;;20947;6731;116972;-79
2022/12/15 07:36:23;;;;;;;42.10;33.50;;;2.40;52.50;;;;;;20751;6731;307613;-75
2022/12/15 07:38:59;;;;;;;41.00;34.27;;;2.40;52.90;;;;;;20666;6747;305907;-76
2022/12/15 07:41:34;;;;;;;45.83;36.10;;;2.50;52.30;;;;;;20694;6745;307175;-74
2022/12/15 07:44:10;;;;;;;38.97;27.30;;;2.70;51.80;;;;;;20847;6762;117421;-75
2022/12/15 07:46:47;;;;;;;40.57;27.30;;;2.50;51.80;;;;;;20849;6746;117275;-73
2022/12/15 07:49:22;;;;;;;33.47;25.30;;;2.00;53.10;;;;;;20924;6731;117233;-78
2022/12/15 07:51:57;;;;;;;32.83;24.80;;;2.00;53.10;;;;;;20836;6761;117205;-76
2022/12/15 07:54:33;;;;;;;34.77;24.63;;;1.70;53.40;;;;;;20874;6731;117207;-75
2022/12/15 07:57:09;;;;;;;43.03;30.50;;;1.60;54.00;;;;;;20980;6716;117184;-80
2022/12/15 07:59:45;;;;;;;33.00;23.73;;;1.50;54.20;;;;;;20899;6730;116982;-78
2022/12/15 08:02:20;;;;;;;44.50;34.50;;;1.40;54.40;;;;;;20593;6770;278591;-77
2022/12/15 08:04:55;;;;;;;41.83;35.17;;;1.60;54.90;;;;;;20492;6772;312823;-77
2022/12/15 08:07:31;;;;;;;41.67;34.87;;;2.10;54.60;;;;;;20680;6745;277085;-76
2022/12/15 08:10:07;;;;;;;43.03;34.93;;;2.40;53.50;;;;;;20646;6760;278850;-76
2022/12/15 08:12:43;;;;;;;43.80;36.20;;;3.00;52.30;;;;;;20636;6763;277710;-76
2022/12/15 08:15:19;;;;;;;37.63;27.93;;;2.90;52.20;;;;;;20805;6736;117728;-76
2022/12/15 08:17:54;;;;;;;42.47;34.00;;;2.80;52.10;;;;;;20778;6712;278464;-77
2022/12/15 08:20:30;;;;;;;41.43;35.27;;;2.80;52.30;;;;;;20749;6722;304886;-78
2022/12/15 08:23:09;;;;;;;35.03;27.87;;;3.00;51.90;;;;;;20943;6722;117252;-76
2022/12/15 08:25:42;;;;;;;35.47;27.27;;;2.70;52.40;;;;;;20793;6723;117427;-76
2022/12/15 08:28:18;;;;;;;49.07;38.53;;;2.60;52.30;;;;;;20928;6732;117083;-74
2022/12/15 08:30:53;;;;;;;41.20;31.00;;;2.40;52.80;;;;;;20894;6736;116704;-76
2022/12/15 08:33:30;;;;;;;40.53;34.35;;;2.20;53.30;;;;;;20666;6742;337689;-76
2022/12/15 08:36:06;;;;;;;40.13;33.93;;;2.40;53.30;;;;;;20703;6735;306642;-76
2022/12/15 08:38:42;;;;;;;37.87;27.77;;;2.70;52.70;;;;;;20959;6721;127657;-76
2022/12/15 08:41:18;;;;;;;35.10;25.63;;;2.70;52.40;;;;;;20979;6715;117472;-76
2022/12/15 08:43:53;;;;;;;42.60;34.40;;;2.50;52.80;;;;;;20725;6715;298827;-75
2022/12/15 08:46:29;;;;;;;38.40;27.43;;;2.60;53.10;;;;;;20969;6729;120519;-77
2022/12/15 08:49:04;;;;;;;42.73;35.13;;;2.60;53.10;;;;;;20745;6728;276644;-76
2022/12/15 08:51:43;;;;;;;49.20;40.63;;;2.70;52.70;;;;;;20697;6740;289935;-76
2022/12/15 08:54:18;;;;;;;40.57;30.43;;;2.90;51.80;;;;;;20884;6726;117412;-76
2022/12/15 08:56:53;;;;;;;53.27;42.33;;;2.90;51.80;;;;;;20788;6713;306006;-76
2022/12/15 08:59:29;;;;;;;50.83;39.80;;;3.00;52.10;;;;;;20736;6731;315912;-77
2022/12/15 09:02:04;;;;;;;39.37;30.10;;;3.20;51.80;;;;;;20950;6726;119914;-75
2022/12/15 09:04:40;;;;;;;41.23;27.87;;;3.00;52.30;;;;;;20869;6726;117372;-75
2022/12/15 09:07:16;;;;;;;46.20;36.53;;;3.00;52.40;;;;;;20764;6714;335188;-76
2022/12/15 09:09:52;;;;;;;50.08;40.95;;;3.10;52.50;;;;;;20729;6718;305436;-75
2022/12/15 09:12:27;;;;;;;59.60;47.95;;;3.40;51.70;;;;;;20708;6731;306608;-75
2022/12/15 09:15:04;;;;;;;46.13;30.97;;;3.60;51.00;;;;;;20698;6763;117759;-75
2022/12/15 09:17:40;;;;;;;48.50;38.30;;;3.60;51.20;;;;;;20662;6745;308324;-75
2022/12/15 09:20:21;;;;;;;45.70;38.83;;;3.90;51.00;;;;;;20613;6761;278322;-77
2022/12/15 09:22:53;;;;;;;46.37;37.43;;;3.90;50.90;;;;;;20618;6755;305200;-77
2022/12/15 09:25:29;;;;;;;42.67;35.93;;;4.10;50.90;;;;;;20591;6731;280968;-77
2022/12/15 09:28:05;;;;;;;43.83;32.10;;;4.20;50.40;;;;;;20893;6740;117039;-76
2022/12/15 09:30:41;;;;;;;37.10;25.67;;;4.10;50.40;;;;;;20899;6738;118280;-78
2022/12/15 09:33:16;;;;;;;34.87;26.07;;;3.80;50.80;;;;;;20816;6765;117501;-79
2022/12/15 09:35:55;;;;;;;42.67;33.72;;;3.50;51.40;;;;;;20547;6738;309489;-78
2022/12/15 09:38:28;;;;;;;43.03;35.17;;;3.60;51.70;;;;;;20736;6732;307434;-77
2022/12/15 09:41:07;;;;;;;41.87;29.67;;;3.80;51.20;;;;;;20934;6732;117003;-77
2022/12/15 09:43:50;;;;;;;37.93;26.20;;;3.80;51.20;;;;;;20868;6749;117834;-79
2022/12/15 09:46:38;;;;;;;45.92;35.30;;;3.70;51.60;;;;;;20729;6729;296671;-77
2022/12/15 09:49:17;;;;;;;43.90;34.75;;;3.70;51.50;;;;;;20711;6736;332370;-77
2022/12/15 09:51:53;;;;;;;37.77;27.47;;;4.00;50.80;;;;;;20917;6736;117810;-78
2022/12/15 09:54:28;;;;;;;42.97;34.80;;;3.90;50.60;;;;;;20710;6721;309560;-77
2022/12/15 09:57:04;;;;;;;37.00;28.87;;;3.90;50.60;;;;;;20994;6708;117449;-78
2022/12/15 09:59:49;;;;;;;41.03;34.72;;;3.70;50.60;;;;;;20713;6732;335617;-79
2022/12/15 10:02:44;;;;;;;42.42;34.70;;;3.70;50.90;;;;;;20710;6736;306948;-77
2022/12/15 10:05:43;;;;;;;43.80;34.78;;;4.00;50.70;;;;;;20606;6724;306226;-78
2022/12/15 10:08:19;;;;;;;43.13;34.42;;;4.20;50.10;;;;;;20731;6726;278952;-77
2022/12/15 10:10:59;;;;;;;38.53;27.60;;;4.10;49.60;;;;;;20949;6735;117068;-76
2022/12/15 10:13:44;;;;;;;36.03;25.13;;;4.10;49.60;;;;;;20923;6735;117141;-79
2022/12/15 10:16:20;;;;;;;35.17;24.70;;;3.70;50.20;;;;;;20604;6777;120162;-79
2022/12/15 10:19:01;;;;;;;41.47;32.80;;;3.50;50.90;;;;;;20709;6727;328414;-78
2022/12/15 10:21:38;;;;;;;38.50;27.23;;;3.50;51.20;;;;;;20934;6727;119549;-79
2022/12/15 10:24:13;;;;;;;37.87;25.03;;;3.50;51.20;;;;;;20825;6745;117333;-78
2022/12/15 10:27:16;;;;;;;38.63;31.97;;;3.40;51.50;;;;;;20762;6715;278841;-78
2022/12/15 10:29:58;;;;;;;35.07;26.00;;;3.50;51.60;;;;;;21056;6701;117216;-76
2022/12/15 10:32:34;;;;;;;33.93;23.23;;;3.50;51.40;;;;;;20972;6760;117572;-76
2022/12/15 10:35:16;;;;;;;40.47;32.80;;;3.30;51.60;;;;;;20689;6701;307368;-76
2022/12/15 10:37:56;;;;;;;36.20;25.63;;;3.50;52.10;;;;;;20940;6723;116995;-78
2022/12/15 10:40:48;;;;;;;31.73;23.70;;;3.50;51.60;;;;;;20919;6733;118741;-75
2022/12/15 10:43:32;;;;;;;40.58;33.63;;;3.50;51.80;;;;;;20740;6722;299011;-76
2022/12/15 10:46:12;;;;;;;36.13;27.27;;;3.50;51.80;;;;;;20701;6803;118724;-78
2022/12/15 10:48:49;;;;;;;39.08;33.30;;;3.60;51.80;;;;;;20639;6732;307258;-78
2022/12/15 10:51:25;;;;;;;38.40;26.93;;;3.70;52.00;;;;;;20908;6747;117018;-76
2022/12/15 10:54:00;;;;;;;40.58;33.72;;;3.70;51.80;;;;;;20549;6770;339031;-76
2022/12/15 10:56:42;;;;;;;39.80;29.03;;;3.80;51.70;;;;;;20825;6750;118670;-77
2022/12/15 10:59:36;;;;;;;37.03;26.97;;;3.60;51.90;;;;;;20359;6790;117377;-80
2022/12/15 11:02:19;;;;;;;45.87;35.13;;;3.60;51.90;;;;;;20650;6735;310562;-76
2022/12/15 11:04:57;;;;;;;68.87;37.93;;;3.70;51.70;;;;;;20709;6761;118848;-73
2022/12/15 11:07:52;;;;;;;55.53;41.00;;;3.80;51.60;;;;;;20686;6738;305729;-72
2022/12/15 11:10:23;;;;;;;45.47;37.93;;;3.90;52.30;;;;;;20294;6768;303440;-78
2022/12/15 11:13:12;;;;;;;42.50;34.37;;;4.40;50.40;;;;;;20710;6729;308357;-71
2022/12/15 11:15:51;;;;;;;38.90;34.47;;;4.40;50.40;;;;;;20546;6732;278678;-73
2022/12/15 11:18:36;;;;;;;41.23;34.30;;;4.60;50.00;;;;;;20708;6735;308646;-73
2022/12/15 11:21:20;;;;;;;39.70;28.03;;;4.70;50.00;;;;;;20867;6760;118227;-73
2022/12/15 11:24:18;;;;;;;35.50;26.70;;;4.60;50.20;;;;;;20841;6750;117716;-71
2022/12/15 11:27:05;;;;;;;40.73;33.03;;;4.30;51.10;;;;;;20721;6723;306935;-76
2022/12/15 11:29:43;;;;;;;35.10;27.60;;;4.20;51.00;;;;;;20197;6779;121391;-75
2022/12/15 11:32:22;;;;;;;36.83;32.07;;;4.20;51.10;;;;;;20764;6723;304546;-76
2022/12/15 11:34:57;;;;;;;33.83;26.63;;;4.30;51.40;;;;;;20835;6730;117773;-75
2022/12/15 11:37:36;;;;;;;23.87;18.97;;;4.30;51.10;;;;;;20909;6743;116981;-76
2022/12/15 11:40:18;;;;;;;38.10;32.27;;;4.00;51.40;;;;;;20652;6743;339948;-76
2022/12/15 11:42:54;;;;;;;35.92;30.33;;;4.10;52.60;;;;;;20651;6743;325182;-76
2022/12/15 11:45:50;;;;;;;36.75;32.30;;;4.50;52.90;;;;;;20543;6743;337837;-76
2022/12/15 11:48:25;;;;;;;33.97;26.23;;;4.80;52.10;;;;;;20916;6733;119502;-74
2022/12/15 11:51:05;;;;;;;35.95;31.27;;;4.70;51.80;;;;;;20671;6741;335430;-74
2022/12/15 11:54:00;;;;;;;34.30;26.70;;;4.70;51.90;;;;;;20892;6741;118421;-75
2022/12/15 11:56:36;;;;;;;32.25;28.58;;;4.60;51.80;;;;;;20633;6725;334899;-76
2022/12/15 11:59:25;;;;;;;33.77;27.10;;;4.60;52.30;;;;;;20885;6740;117344;-75
2022/12/15 12:02:27;;;;;;;41.97;30.77;;;4.60;52.30;;;;;;20880;6740;117537;-75
2022/12/15 12:05:26;;;;;;;39.07;34.43;;;4.40;53.40;;;;;;20586;6734;311150;-75
2022/12/15 12:08:15;;;;;;;33.73;26.40;;;4.50;52.40;;;;;;20857;6751;119241;-80
2022/12/15 12:11:04;;;;;;;32.30;23.97;;;4.40;52.30;;;;;;20894;6736;118589;-76
2022/12/15 12:13:42;;;;;;;39.37;33.53;;;4.30;52.80;;;;;;20675;6741;310967;-77
2022/12/15 12:16:22;;;;;;;32.93;26.30;;;4.40;52.20;;;;;;20915;6734;117294;-74
2022/12/15 12:19:10;;;;;;;36.67;31.83;;;4.40;52.10;;;;;;20406;6805;301586;-76
2022/12/15 12:21:46;;;;;;;33.17;24.83;;;4.60;51.70;;;;;;20954;6719;119990;-72
2022/12/15 12:24:31;;;;;;;33.87;25.83;;;4.50;51.40;;;;;;20891;6725;117162;-72
2022/12/15 12:27:33;;;;;;;28.93;22.37;;;4.30;51.90;;;;;;20971;6710;117476;-74
2022/12/15 12:30:19;;;;;;;31.93;23.43;;;4.10;52.20;;;;;;20943;6724;118080;-74
2022/12/15 12:33:03;;;;;;;31.03;22.23;;;4.00;52.90;;;;;;20892;6734;116999;-73
2022/12/15 12:35:48;;;;;;;30.40;22.27;;;4.00;52.90;;;;;;20786;6734;117772;-72
2022/12/15 12:38:24;;;;;;;31.50;23.23;;;4.00;53.10;;;;;;20831;6736;117004;-74
2022/12/15 12:41:19;;;;;;;36.43;30.73;;;3.90;53.10;;;;;;20603;6753;307177;-74
2022/12/15 12:43:57;;;;;;;30.87;24.00;;;4.20;52.90;;;;;;20829;6751;117254;-74
2022/12/15 12:46:36;;;;;;;32.72;29.23;;;4.10;52.10;;;;;;20710;6738;307350;-73
2022/12/15 12:49:30;;;;;;;33.92;30.25;;;4.30;51.50;;;;;;20660;6750;280965;-75
2022/12/15 12:52:06;;;;;;;27.93;23.60;;;4.60;50.90;;;;;;20885;6753;117248;-75
2022/12/15 12:54:41;;;;;;;33.30;29.65;;;4.40;50.80;;;;;;20617;6738;336688;-74
2022/12/15 12:57:33;;;;;;;33.53;29.93;;;4.40;50.70;;;;;;20526;6733;326846;-75
2022/12/15 13:00:12;;;;;;;34.80;30.97;;;4.60;50.80;;;;;;20779;6718;304989;-74
2022/12/15 13:02:51;;;;;;;34.17;29.97;;;4.90;50.20;;;;;;20753;6718;279709;-74
2022/12/15 13:05:34;;;;;;;36.40;32.03;;;4.90;50.20;;;;;;20648;6718;277700;-74
2022/12/15 13:08:09;;;;;;;34.90;29.13;;;4.90;50.00;;;;;;20665;6737;292398;-74
2022/12/15 13:10:44;;;;;;;34.87;31.07;;;5.00;50.00;;;;;;20685;6737;297696;-73
2022/12/15 13:13:28;;;;;;;38.97;31.40;;;5.00;49.90;;;;;;20664;6748;307816;-76
2022/12/15 13:16:10;;;;;;;43.40;33.97;;;5.00;50.00;;;;;;20466;6813;308456;-76
2022/12/15 13:19:02;;;;;;;32.07;24.47;;;5.00;50.00;;;;;;20683;6745;121548;-73
2022/12/15 13:21:40;;;;;;;41.90;32.97;;;4.70;50.00;;;;;;20884;6746;117193;-74
2022/12/15 13:24:32;;;;;;;63.70;49.70;;;4.20;50.80;;;;;;20926;6721;117503;-78
2022/12/15 13:27:08;;;;;;;40.43;28.03;;;3.80;51.40;;;;;;21003;6707;117013;-77
2022/12/15 13:29:54;;;;;;;37.27;30.27;;;3.60;52.30;;;;;;20743;6722;308957;-75
2022/12/15 13:32:37;;;;;;;33.92;30.10;;;3.90;52.30;;;;;;20713;6732;307215;-77
2022/12/15 13:35:13;;;;;;;35.50;30.40;;;3.90;52.30;;;;;;20624;6722;337005;-76
2022/12/15 13:38:06;;;;;;;33.63;24.93;;;4.20;51.50;;;;;;21006;6708;117215;-76
2022/12/15 13:40:48;;;;;;;41.07;36.57;;;4.10;51.50;;;;;;20786;6708;311135;-76
2022/12/15 13:43:30;;;;;;;37.72;33.67;;;4.10;51.50;;;;;;20754;6722;276876;-75
2022/12/15 13:46:09;;;;;;;37.33;30.80;;;4.30;51.40;;;;;;20474;6803;322659;-76
2022/12/15 13:49:09;;;;;;;34.33;26.67;;;4.50;50.90;;;;;;20915;6722;117470;-76
2022/12/15 13:51:44;;;;;;;36.47;30.77;;;4.30;50.90;;;;;;20693;6732;279672;-76
2022/12/15 13:54:19;;;;;;;31.67;24.33;;;4.20;51.10;;;;;;20878;6732;120431;-75
2022/12/15 13:57:04;;;;;;;31.07;21.87;;;4.10;51.30;;;;;;20947;6722;118685;-75
2022/12/15 13:59:40;;;;;;;29.73;23.23;;;3.80;51.80;;;;;;21005;6707;119135;-74
2022/12/15 14:02:25;;;;;;;30.57;22.57;;;3.50;53.00;;;;;;20991;6717;119109;-73
2022/12/15 14:05:20;;;;;;;31.07;22.17;;;3.30;52.80;;;;;;20842;6722;118643;-74
2022/12/15 14:07:55;;;;;;;29.97;22.07;;;3.20;53.20;;;;;;20998;6707;117093;-73
2022/12/15 14:10:33;;;;;;;28.70;21.70;;;3.10;53.60;;;;;;20994;6707;118569;-73
2022/12/15 14:13:11;;;;;;;30.63;22.10;;;3.00;53.90;;;;;;20999;6707;116979;-74
2022/12/15 14:15:46;;;;;;;30.47;22.37;;;2.90;54.00;;;;;;20776;6725;118238;-74
2022/12/15 14:18:32;;;;;;;37.83;30.63;;;2.90;54.20;;;;;;20766;6708;335287;-74
2022/12/15 14:21:23;;;;;;;35.38;30.48;;;3.50;54.60;;;;;;20711;6722;317296;-74
2022/12/15 14:24:00;;;;;;;31.33;24.00;;;3.50;54.60;;;;;;20895;6732;118152;-72
2022/12/15 14:26:34;;;;;;;33.70;29.23;;;3.60;53.90;;;;;;20657;6736;304947;-73
2022/12/15 14:29:11;;;;;;;32.93;25.00;;;3.70;53.90;;;;;;20893;6744;119190;-73
2022/12/15 14:31:48;;;;;;;30.40;23.07;;;3.60;53.70;;;;;;20828;6714;117643;-74
2022/12/15 14:34:27;;;;;;;35.80;29.03;;;3.50;54.00;;;;;;20677;6721;311163;-72
2022/12/15 14:37:02;;;;;;;34.27;29.20;;;3.50;54.10;;;;;;20750;6714;307001;-72
2022/12/15 14:39:38;;;;;;;34.23;23.60;;;3.80;54.30;;;;;;20977;6714;120140;-72
2022/12/15 14:42:14;;;;;;;36.90;29.73;;;3.80;53.80;;;;;;20771;6714;276220;-72
2022/12/15 14:44:49;;;;;;;35.17;28.77;;;3.90;53.90;;;;;;20690;6714;288877;-73
2022/12/15 14:47:25;;;;;;;32.47;27.73;;;4.10;53.20;;;;;;20792;6714;276713;-73
2022/12/15 14:50:00;;;;;;;26.90;22.03;;;4.30;52.80;;;;;;20998;6714;117110;-73
2022/12/15 14:52:36;;;;;;;33.65;27.80;;;4.10;52.60;;;;;;20742;6713;335485;-74
2022/12/15 14:55:22;;;;;;;30.50;22.40;;;4.00;52.80;;;;;;20869;6713;117934;-73
2022/12/15 14:57:58;;;;;;;28.73;20.60;;;3.50;53.30;;;;;;20941;6728;117067;-74
2022/12/15 15:00:34;;;;;;;30.30;20.30;;;3.50;53.30;;;;;;20923;6731;117277;-74
2022/12/15 15:03:13;;;;;;;29.90;20.83;;;3.30;54.00;;;;;;20890;6743;118579;-74
2022/12/15 15:05:48;;;;;;;28.70;21.20;;;3.20;54.30;;;;;;20820;6729;117234;-74
2022/12/15 15:08:27;;;;;;;34.67;27.27;;;3.00;54.60;;;;;;20759;6716;277147;-74
2022/12/15 15:11:28;;;;;;;28.20;22.23;;;3.10;54.60;;;;;;20927;6724;117197;-74
2022/12/15 15:14:08;;;;;;;30.23;21.23;;;3.20;54.30;;;;;;20908;6729;117690;-74
2022/12/15 15:16:43;;;;;;;34.73;28.77;;;2.90;54.40;;;;;;20727;6721;293605;-72
2022/12/15 15:19:19;;;;;;;36.40;29.27;;;3.10;54.60;;;;;;20750;6721;307612;-74
2022/12/15 15:21:54;;;;;;;29.27;21.27;;;3.50;54.20;;;;;;20965;6721;117140;-74
2022/12/15 15:24:34;;;;;;;34.90;28.70;;;3.40;53.80;;;;;;20649;6729;286286;-73
2022/12/15 15:27:16;;;;;;;32.47;23.13;;;3.30;53.80;;;;;;20965;6721;119743;-72
2022/12/15 15:29:52;;;;;;;28.63;20.57;;;3.30;53.80;;;;;;20967;6721;119077;-74
2022/12/15 15:32:27;;;;;;;34.53;27.53;;;3.00;54.10;;;;;;20718;6777;278785;-74
2022/12/15 15:35:03;;;;;;;42.70;33.30;;;3.20;54.80;;;;;;20623;6714;311542;-74
2022/12/15 15:37:39;;;;;;;34.80;28.50;;;3.50;55.00;;;;;;20766;6714;306609;-73
2022/12/15 15:40:14;;;;;;;31.47;22.83;;;3.70;54.10;;;;;;20969;6712;117485;-74
2022/12/15 15:42:51;;;;;;;34.13;28.07;;;3.70;54.10;;;;;;20668;6729;336647;-73
2022/12/15 15:45:26;;;;;;;31.20;22.70;;;3.60;54.60;;;;;;20816;6712;117898;-73
2022/12/15 15:48:02;;;;;;;33.97;27.87;;;3.50;54.10;;;;;;20748;6712;278373;-74
2022/12/15 15:50:40;;;;;;;34.20;28.00;;;3.60;54.80;;;;;;20657;6742;289913;-73